Time;durP1;ratioP1;P1;durP2;ratioP2;P2;SDS_P1;SDS_P2;PMS_P1;PMS_P2;Temp;Humidity;BMP_temperature;BMP_pressure;BME280_temperature;BME280_humidity;BME280_pressure;Samples;Min_cycle;Max_cycle;Signal;HPM_P1;HPM_P2
2022/05/07 00:00:17;;;;;;;1.87;1.03;;;16.20;99.90;;;;;;5063753;28;20464;-62
2022/05/07 00:02:48;;;;;;;4.17;1.20;;;16.00;99.90;;;;;;5061580;28;20471;-63
2022/05/07 00:05:19;;;;;;;3.03;1.40;;;16.00;99.90;;;;;;5062922;28;20442;-62
2022/05/07 00:07:50;;;;;;;1.70;1.57;;;15.80;99.90;;;;;;5064741;28;20482;-63
2022/05/07 00:10:23;;;;;;;3.23;1.60;;;15.60;99.90;;;;;;5062609;28;20467;-62
2022/05/07 00:12:54;;;;;;;3.77;2.00;;;15.30;99.90;;;;;;5064257;28;20464;-63
2022/05/07 00:15:25;;;;;;;2.20;1.70;;;15.00;99.90;;;;;;5062278;28;20503;-62
2022/05/07 00:18:05;;;;;;;3.00;1.40;;;14.60;99.90;;;;;;5064008;28;20496;-62
2022/05/07 00:20:38;;;;;;;4.87;2.47;;;14.20;99.90;;;;;;5064007;28;20468;-61
2022/05/07 00:23:08;;;;;;;8.20;3.00;;;13.80;99.90;;;;;;5060869;28;20456;-62
2022/05/07 00:25:41;;;;;;;4.10;2.47;;;13.70;99.90;;;;;;5063577;28;20455;-62
2022/05/07 00:28:11;;;;;;;7.03;2.30;;;13.60;99.90;;;;;;5063309;28;20478;-62
2022/05/07 00:30:42;;;;;;;6.63;2.90;;;13.60;99.90;;;;;;5061081;28;20993;-62
2022/05/07 00:33:13;;;;;;;7.10;2.50;;;13.50;99.90;;;;;;5060281;28;20487;-62
2022/05/07 00:35:44;;;;;;;6.20;3.10;;;13.40;99.90;;;;;;5063206;28;20530;-63
2022/05/07 00:38:15;;;;;;;6.10;3.30;;;13.40;99.90;;;;;;5061744;28;20480;-63
2022/05/07 00:40:47;;;;;;;4.90;2.60;;;13.60;99.90;;;;;;5063019;28;20456;-63
2022/05/07 00:43:18;;;;;;;6.57;3.00;;;13.90;99.90;;;;;;5064450;28;20448;-63
2022/05/07 00:45:49;;;;;;;7.53;2.90;;;14.00;99.90;;;;;;5063225;28;20448;-62
2022/05/07 00:48:22;;;;;;;7.40;2.80;;;13.90;99.90;;;;;;5064208;28;20460;-62
2022/05/07 00:53:40;;;;;;;4.47;2.10;;;14.20;99.90;;;;;;5062778;28;20654;-63
2022/05/07 00:56:13;;;;;;;5.63;2.53;;;14.20;99.90;;;;;;5065135;28;20462;-62
2022/05/07 00:58:44;;;;;;;5.60;2.67;;;14.20;99.90;;;;;;5062058;28;20556;-63
2022/05/07 01:01:14;;;;;;;4.47;2.60;;;14.10;99.90;;;;;;5060960;28;20479;-63
2022/05/07 01:03:46;;;;;;;6.13;2.60;;;14.20;99.90;;;;;;5063498;28;20460;-63
2022/05/07 01:06:17;;;;;;;7.43;3.67;;;14.10;99.90;;;;;;5062422;28;20469;-62
2022/05/07 01:08:48;;;;;;;4.60;2.63;;;14.20;99.90;;;;;;5062602;28;20456;-64
2022/05/07 01:11:21;;;;;;;6.00;2.43;;;14.20;99.90;;;;;;5064586;28;20512;-62
2022/05/07 01:13:53;;;;;;;3.70;1.67;;;14.20;99.90;;;;;;5062718;28;20460;-63
2022/05/07 01:16:24;;;;;;;7.00;2.17;;;14.30;99.90;;;;;;5063482;28;20491;-68
2022/05/07 01:18:56;;;;;;;3.53;1.80;;;14.50;99.90;;;;;;5062412;28;20503;-64
2022/05/07 01:21:29;;;;;;;5.77;2.23;;;14.50;99.90;;;;;;5051415;28;20540;-64
2022/05/07 01:24:00;;;;;;;3.40;1.87;;;14.50;99.90;;;;;;5058605;28;20468;-66
2022/05/07 01:26:31;;;;;;;6.70;1.67;;;14.60;99.90;;;;;;5060105;28;20482;-65
2022/05/07 01:29:03;;;;;;;1.93;1.50;;;14.60;99.90;;;;;;5062339;28;20467;-66
2022/05/07 01:31:34;;;;;;;3.90;1.90;;;14.60;99.90;;;;;;5062847;28;20555;-66
2022/05/07 01:34:05;;;;;;;2.13;1.63;;;14.60;99.90;;;;;;5062380;28;20522;-66
2022/05/07 01:36:37;;;;;;;3.50;1.90;;;14.60;99.90;;;;;;5060074;28;20528;-66
2022/05/07 01:39:08;;;;;;;2.40;1.73;;;14.70;99.90;;;;;;5062106;28;20811;-66
2022/05/07 01:41:39;;;;;;;5.97;2.30;;;14.70;99.90;;;;;;5063324;28;20464;-66
2022/05/07 01:44:10;;;;;;;4.90;1.70;;;14.50;99.90;;;;;;5062584;28;20491;-67
2022/05/07 01:49:28;;;;;;;2.70;1.63;;;14.30;99.90;;;;;;5062457;28;20543;-66
2022/05/07 01:52:00;;;;;;;5.33;1.43;;;14.10;99.90;;;;;;5063342;28;20825;-66
2022/05/07 01:54:31;;;;;;;1.83;1.30;;;14.10;99.90;;;;;;5051466;28;20478;-67
2022/05/07 01:57:02;;;;;;;4.10;2.43;;;14.00;99.90;;;;;;5063461;28;20452;-66
2022/05/07 01:59:33;;;;;;;3.03;1.50;;;14.10;99.90;;;;;;5049086;28;20627;-66
2022/05/07 02:02:04;;;;;;;3.80;1.60;;;14.10;99.90;;;;;;5061840;28;20467;-65
2022/05/07 02:04:35;;;;;;;2.93;1.80;;;14.00;99.90;;;;;;5061937;28;20490;-64
2022/05/07 02:07:08;;;;;;;3.83;1.50;;;13.90;99.90;;;;;;5059868;28;20475;-64
2022/05/07 02:09:39;;;;;;;3.70;2.00;;;13.90;99.90;;;;;;5058415;28;20463;-64
2022/05/07 02:12:12;;;;;;;4.63;1.87;;;13.80;99.90;;;;;;5064764;28;20560;-65
2022/05/07 02:14:47;;;;;;;2.60;1.40;;;13.70;99.90;;;;;;5060066;28;20471;-65
2022/05/07 02:17:17;;;;;;;2.43;1.57;;;13.60;99.90;;;;;;5053669;28;20464;-65
2022/05/07 02:19:48;;;;;;;4.43;1.77;;;13.70;99.90;;;;;;5061560;28;20513;-64
2022/05/07 02:22:21;;;;;;;3.80;1.50;;;13.70;99.90;;;;;;5057259;28;20468;-65
2022/05/07 02:24:52;;;;;;;4.30;1.40;;;13.70;99.90;;;;;;5058715;28;20452;-64
2022/05/07 02:27:22;;;;;;;4.20;1.70;;;13.60;99.90;;;;;;5062587;28;20456;-66
2022/05/07 02:29:56;;;;;;;5.40;1.80;;;13.70;99.90;;;;;;5061594;28;20468;-65
2022/05/07 02:32:27;;;;;;;4.17;1.90;;;13.60;99.90;;;;;;5064751;28;20470;-63
2022/05/07 02:34:59;;;;;;;5.43;1.60;;;13.70;99.90;;;;;;5059698;28;20482;-64
2022/05/07 02:37:31;;;;;;;5.00;1.70;;;13.60;99.90;;;;;;5060247;28;20475;-63
2022/05/07 02:40:02;;;;;;;4.10;1.60;;;13.80;99.90;;;;;;5061759;28;20487;-63
2022/05/07 02:42:40;;;;;;;2.27;1.43;;;13.70;99.90;;;;;;5059579;28;20495;-64
2022/05/07 02:45:11;;;;;;;2.80;1.60;;;13.60;99.90;;;;;;5060242;28;20467;-65
2022/05/07 02:47:45;;;;;;;2.50;1.30;;;13.60;99.90;;;;;;5062689;28;20462;-64
2022/05/07 02:50:16;;;;;;;3.80;2.23;;;13.40;99.90;;;;;;5062944;28;20464;-64
2022/05/07 02:52:49;;;;;;;3.33;1.70;;;13.40;99.90;;;;;;5061621;28;20547;-64
2022/05/07 02:55:20;;;;;;;5.30;2.90;;;13.40;99.90;;;;;;5059374;28;20456;-64
2022/05/07 02:57:50;;;;;;;6.50;2.30;;;13.30;99.90;;;;;;5060508;28;20456;-63
2022/05/07 03:00:22;;;;;;;4.40;2.57;;;13.20;99.90;;;;;;5057522;28;20497;-63
2022/05/07 03:02:53;;;;;;;5.30;2.03;;;13.30;99.90;;;;;;5061383;28;20464;-63
2022/05/07 03:05:24;;;;;;;7.20;2.00;;;13.10;99.90;;;;;;5060080;28;20495;-63
2022/05/07 03:07:59;;;;;;;4.30;1.87;;;13.10;99.90;;;;;;5060636;28;20468;-63
2022/05/07 03:10:30;;;;;;;3.53;1.50;;;13.10;99.90;;;;;;5058566;28;20472;-63
2022/05/07 03:13:00;;;;;;;4.80;1.83;;;13.10;99.90;;;;;;5057653;28;20547;-63
2022/05/07 03:15:32;;;;;;;4.90;2.03;;;12.90;99.90;;;;;;5060723;28;20476;-63
2022/05/07 03:18:03;;;;;;;3.20;2.10;;;12.80;99.90;;;;;;5061581;28;20529;-63
2022/05/07 03:20:34;;;;;;;4.10;2.30;;;12.80;99.90;;;;;;5060943;28;20503;-64
2022/05/07 03:23:07;;;;;;;3.57;2.20;;;12.70;99.90;;;;;;5059091;28;20460;-63
2022/05/07 03:25:38;;;;;;;5.17;1.80;;;12.70;99.90;;;;;;5050311;28;20448;-64
2022/05/07 03:28:09;;;;;;;3.00;2.20;;;12.60;99.90;;;;;;5061472;28;20766;-63
2022/05/07 03:30:39;;;;;;;4.90;1.87;;;12.50;99.90;;;;;;5061846;28;20463;-63
2022/05/07 03:33:10;;;;;;;7.00;2.17;;;12.40;99.90;;;;;;5062778;28;20453;-63
2022/05/07 03:35:43;;;;;;;1.40;1.23;;;12.30;99.90;;;;;;5065998;28;20448;-62
2022/05/07 03:38:16;;;;;;;1.73;1.03;;;12.20;99.90;;;;;;5065129;28;20436;-62
2022/05/07 03:40:46;;;;;;;2.83;1.37;;;12.10;99.90;;;;;;5066449;28;20571;-63
2022/05/07 03:43:18;;;;;;;1.37;1.10;;;12.00;99.90;;;;;;5065556;28;20452;-62
2022/05/07 03:45:48;;;;;;;1.00;0.83;;;11.90;99.90;;;;;;5063332;28;20474;-62
2022/05/07 03:48:19;;;;;;;2.30;1.13;;;11.70;99.90;;;;;;5063696;28;20475;-62
2022/05/07 03:50:50;;;;;;;2.80;1.40;;;11.70;99.90;;;;;;5058535;28;20464;-64
2022/05/07 03:53:30;;;;;;;2.97;1.30;;;11.60;99.90;;;;;;5067988;28;20796;-63
2022/05/07 03:56:02;;;;;;;2.30;1.17;;;11.60;99.90;;;;;;5064683;28;20487;-61
2022/05/07 03:58:33;;;;;;;4.50;2.10;;;11.50;99.90;;;;;;5065580;28;20482;-62
2022/05/07 04:01:08;;;;;;;2.07;1.20;;;11.50;99.90;;;;;;5058297;28;20544;-63
2022/05/07 04:03:40;;;;;;;4.50;1.40;;;11.50;99.90;;;;;;5063415;28;20452;-63
2022/05/07 04:06:10;;;;;;;2.30;1.33;;;11.40;99.90;;;;;;5061878;28;20470;-63
2022/05/07 04:08:45;;;;;;;1.77;0.70;;;11.40;99.90;;;;;;5062978;28;20452;-63
2022/05/07 04:11:16;;;;;;;1.47;1.07;;;11.30;99.90;;;;;;5066944;28;20527;-62
2022/05/07 04:13:47;;;;;;;2.00;0.97;;;11.20;99.90;;;;;;5064126;28;20524;-63
2022/05/07 04:16:18;;;;;;;2.77;1.23;;;11.10;99.90;;;;;;5063867;28;20481;-65
2022/05/07 04:18:49;;;;;;;1.80;0.83;;;11.10;99.90;;;;;;5064822;28;20456;-63
2022/05/07 04:21:20;;;;;;;0.90;0.90;;;11.00;99.90;;;;;;5064696;28;20492;-64
2022/05/07 04:23:55;;;;;;;1.23;0.80;;;11.00;99.90;;;;;;5067388;28;20527;-63
2022/05/07 04:26:26;;;;;;;2.53;0.87;;;11.00;99.90;;;;;;5064993;28;20451;-63
2022/05/07 04:28:56;;;;;;;2.37;0.90;;;11.00;99.90;;;;;;5064840;28;20456;-64
2022/05/07 04:31:27;;;;;;;1.27;0.80;;;11.10;99.90;;;;;;5045079;28;20455;-63
2022/05/07 04:33:58;;;;;;;2.90;1.03;;;11.10;99.90;;;;;;5056367;28;20452;-63
2022/05/07 04:36:29;;;;;;;1.33;0.80;;;11.10;99.90;;;;;;5064026;28;20472;-62
2022/05/07 04:39:02;;;;;;;1.00;0.80;;;11.10;99.90;;;;;;5062509;28;20452;-64
2022/05/07 04:41:33;;;;;;;2.57;0.90;;;11.20;99.90;;;;;;5064619;28;20579;-63
2022/05/07 04:44:03;;;;;;;1.03;0.80;;;11.10;99.90;;;;;;5063136;28;20468;-63
2022/05/07 04:46:37;;;;;;;2.70;1.17;;;11.20;99.90;;;;;;5062356;28;20464;-63
2022/05/07 04:49:08;;;;;;;3.10;1.20;;;11.30;99.90;;;;;;5056664;28;20475;-63
2022/05/07 04:51:39;;;;;;;3.23;1.20;;;11.30;99.90;;;;;;5063966;28;20452;-63
2022/05/07 04:54:11;;;;;;;2.40;1.27;;;11.30;99.90;;;;;;5064054;28;20452;-63
2022/05/07 04:56:43;;;;;;;6.30;2.20;;;11.30;99.90;;;;;;5063027;28;20461;-63
2022/05/07 04:59:13;;;;;;;1.77;1.50;;;11.30;99.90;;;;;;5049378;28;20452;-63
2022/05/07 05:01:44;;;;;;;1.67;1.00;;;11.30;99.90;;;;;;5064711;28;20496;-63
2022/05/07 05:04:16;;;;;;;2.00;1.10;;;11.30;99.90;;;;;;5063999;28;20460;-63
2022/05/07 05:06:47;;;;;;;1.33;1.20;;;11.30;99.90;;;;;;5064874;28;20460;-63
2022/05/07 05:09:20;;;;;;;2.50;1.23;;;11.30;99.90;;;;;;5065645;28;20459;-63
2022/05/07 05:11:50;;;;;;;3.27;1.40;;;11.30;99.90;;;;;;5067693;28;20471;-63
2022/05/07 05:17:09;;;;;;;1.47;1.37;;;11.20;99.90;;;;;;5023888;28;20454;-63
2022/05/07 05:19:39;;;;;;;2.90;1.50;;;11.30;99.90;;;;;;5031225;28;20462;-63
2022/05/07 05:22:10;;;;;;;4.70;1.60;;;11.30;99.90;;;;;;5024341;28;20458;-63
2022/05/07 05:24:43;;;;;;;2.67;1.50;;;11.20;99.90;;;;;;5023198;28;20455;-63
2022/05/07 05:27:14;;;;;;;1.60;1.50;;;11.30;99.90;;;;;;5023938;28;20462;-63
2022/05/07 05:29:46;;;;;;;2.10;1.40;;;11.30;99.90;;;;;;5023694;28;20581;-63
2022/05/07 05:32:19;;;;;;;2.80;1.50;;;11.30;99.90;;;;;;5024437;28;20473;-63
2022/05/07 05:34:52;;;;;;;4.10;1.97;;;11.30;99.90;;;;;;5023231;28;20466;-63
2022/05/07 05:37:23;;;;;;;2.93;1.70;;;11.30;99.90;;;;;;5023992;28;20461;-62
2022/05/07 05:39:55;;;;;;;2.20;2.00;;;11.30;99.90;;;;;;5022805;28;20438;-63
2022/05/07 05:42:26;;;;;;;5.53;2.10;;;11.40;99.90;;;;;;5023972;28;20476;-63
2022/05/07 05:44:57;;;;;;;4.57;2.50;;;11.50;99.90;;;;;;5024509;28;21039;-62
2022/05/07 05:47:28;;;;;;;5.13;2.17;;;11.40;99.90;;;;;;5023995;28;20458;-62
2022/05/07 05:49:59;;;;;;;2.77;1.90;;;11.50;99.90;;;;;;5022296;28;20484;-62
2022/05/07 05:52:32;;;;;;;2.37;2.17;;;11.50;99.90;;;;;;5022534;28;20795;-62
2022/05/07 05:55:04;;;;;;;6.13;2.40;;;11.50;99.90;;;;;;5022915;28;20458;-62
2022/05/07 05:57:35;;;;;;;2.37;2.10;;;11.40;99.90;;;;;;5025760;28;20476;-62
2022/05/07 06:00:07;;;;;;;5.40;2.37;;;11.40;99.90;;;;;;5021331;28;20474;-62
2022/05/07 06:02:38;;;;;;;3.90;2.27;;;11.40;99.90;;;;;;5022680;28;20477;-62
2022/05/07 06:05:09;;;;;;;6.03;2.70;;;11.50;99.90;;;;;;5022424;28;20470;-62
2022/05/07 06:07:40;;;;;;;3.20;2.17;;;11.60;99.90;;;;;;5021871;28;20474;-63
2022/05/07 06:10:13;;;;;;;6.57;2.60;;;11.60;99.90;;;;;;5021113;28;20461;-62
2022/05/07 06:12:47;;;;;;;7.03;2.57;;;11.70;99.90;;;;;;5023026;28;20469;-62
2022/05/07 06:15:18;;;;;;;3.60;2.30;;;11.70;99.90;;;;;;5031380;28;20483;-62
2022/05/07 06:17:48;;;;;;;4.20;2.37;;;11.60;99.90;;;;;;5061971;28;20460;-62
2022/05/07 06:20:19;;;;;;;5.23;2.43;;;11.60;99.90;;;;;;5065672;28;20459;-62
2022/05/07 06:22:50;;;;;;;3.83;2.20;;;11.60;99.90;;;;;;5061008;28;20487;-62
2022/05/07 06:28:10;;;;;;;3.23;2.13;;;11.60;99.90;;;;;;5061048;28;20464;-62
2022/05/07 06:30:41;;;;;;;4.73;2.27;;;11.60;99.90;;;;;;5061857;28;20970;-62
2022/05/07 06:33:14;;;;;;;3.60;1.70;;;11.60;99.90;;;;;;5061979;28;20482;-62
2022/05/07 06:35:45;;;;;;;3.77;1.73;;;11.60;99.90;;;;;;5062594;28;20460;-62
2022/05/07 06:38:16;;;;;;;4.17;2.17;;;11.60;99.90;;;;;;5061007;28;20475;-63
2022/05/07 06:40:50;;;;;;;2.97;1.63;;;11.60;99.90;;;;;;5061892;28;20488;-64
2022/05/07 06:43:21;;;;;;;2.90;1.97;;;11.60;99.90;;;;;;5061821;28;20451;-62
2022/05/07 06:45:52;;;;;;;3.10;1.20;;;11.60;99.90;;;;;;5061677;28;20490;-62
2022/05/07 06:48:22;;;;;;;3.27;1.87;;;11.50;99.90;;;;;;5060937;28;20514;-62
2022/05/07 06:50:53;;;;;;;3.60;1.60;;;11.50;99.90;;;;;;5062542;28;20468;-62
2022/05/07 06:53:24;;;;;;;3.00;1.27;;;11.50;99.90;;;;;;5061017;28;20474;-62
2022/05/07 06:55:58;;;;;;;4.93;1.50;;;11.50;99.90;;;;;;5062229;28;20456;-62
2022/05/07 06:58:30;;;;;;;2.73;1.57;;;11.50;99.90;;;;;;5059959;28;20462;-62
2022/05/07 07:01:02;;;;;;;4.90;1.40;;;11.50;99.90;;;;;;5061439;28;20506;-62
2022/05/07 07:03:33;;;;;;;3.63;1.20;;;11.50;99.90;;;;;;5062527;28;20456;-62
2022/05/07 07:06:05;;;;;;;4.00;2.43;;;11.50;99.90;;;;;;5062843;28;20468;-62
2022/05/07 07:08:36;;;;;;;6.33;1.93;;;11.50;99.90;;;;;;5065757;28;20460;-62
2022/05/07 07:11:09;;;;;;;4.63;1.53;;;11.50;99.90;;;;;;5063022;28;20643;-62
2022/05/07 07:13:41;;;;;;;3.70;1.40;;;11.50;99.90;;;;;;5060540;28;20471;-62
2022/05/07 07:16:12;;;;;;;2.60;1.73;;;11.50;99.90;;;;;;5060220;28;20488;-62
2022/05/07 07:18:43;;;;;;;4.27;1.73;;;11.50;99.90;;;;;;5061388;28;20475;-62
2022/05/07 07:21:14;;;;;;;3.20;1.57;;;11.50;99.90;;;;;;5061114;28;20487;-62
2022/05/07 07:23:47;;;;;;;3.20;1.40;;;11.50;99.90;;;;;;5059956;28;20468;-62
2022/05/07 07:26:20;;;;;;;2.30;1.23;;;11.50;99.90;;;;;;5060905;28;20471;-62
2022/05/07 07:28:51;;;;;;;3.53;1.53;;;11.60;99.90;;;;;;5064090;28;20543;-62
2022/05/07 07:31:22;;;;;;;5.93;1.80;;;11.60;99.90;;;;;;5061271;28;20483;-62
2022/05/07 07:33:53;;;;;;;3.10;1.60;;;11.70;99.90;;;;;;5060692;28;20518;-62
2022/05/07 07:36:23;;;;;;;3.20;2.13;;;11.70;99.90;;;;;;5064822;28;20467;-62
2022/05/07 07:38:54;;;;;;;6.20;1.23;;;11.60;99.90;;;;;;5060109;28;20471;-63
2022/05/07 07:41:26;;;;;;;5.03;1.20;;;11.60;99.90;;;;;;5063585;28;20519;-62
2022/05/07 07:43:57;;;;;;;4.37;1.70;;;11.50;99.90;;;;;;5060526;28;20463;-61
2022/05/07 07:49:21;;;;;;;2.03;1.57;;;11.50;99.90;;;;;;5059730;28;20456;-61
2022/05/07 07:51:52;;;;;;;3.60;1.77;;;11.40;99.90;;;;;;5061758;28;20456;-61
2022/05/07 07:54:23;;;;;;;2.27;1.47;;;11.30;99.90;;;;;;5056001;28;20475;-62
2022/05/07 07:56:56;;;;;;;3.20;1.70;;;11.20;99.90;;;;;;5063575;28;20464;-63
2022/05/07 07:59:27;;;;;;;9.00;1.93;;;11.10;99.90;;;;;;5060802;28;20574;-61
2022/05/07 08:01:57;;;;;;;5.63;2.00;;;11.10;99.90;;;;;;5059245;28;20488;-61
2022/05/07 08:04:28;;;;;;;3.23;1.83;;;11.10;99.90;;;;;;5060464;28;20462;-61
2022/05/07 08:12:36;;;;;;;2.83;1.53;;;11.10;99.90;;;;;;5060414;28;20535;-61
2022/05/07 08:15:07;;;;;;;4.10;1.77;;;11.10;99.90;;;;;;5060181;28;20494;-62
2022/05/07 08:17:38;;;;;;;1.60;1.40;;;11.00;99.90;;;;;;5060935;28;20448;-61
2022/05/07 08:20:11;;;;;;;4.10;1.63;;;11.00;99.90;;;;;;5061325;28;20463;-61
2022/05/07 08:22:41;;;;;;;3.37;1.50;;;11.10;99.90;;;;;;5062443;28;20498;-61
2022/05/07 08:25:12;;;;;;;2.93;1.70;;;11.00;99.90;;;;;;5053758;28;20460;-62
2022/05/07 08:27:45;;;;;;;5.00;1.73;;;11.00;99.90;;;;;;5064384;28;20460;-61
2022/05/07 08:30:16;;;;;;;2.57;1.37;;;10.90;99.90;;;;;;5064538;28;20456;-61
2022/05/07 08:32:47;;;;;;;4.87;1.40;;;10.90;99.90;;;;;;5063344;28;20492;-62
2022/05/07 08:35:17;;;;;;;5.13;1.60;;;10.90;99.90;;;;;;5063774;28;20460;-61
2022/05/07 08:37:50;;;;;;;3.20;1.40;;;11.00;99.90;;;;;;5067918;28;20468;-61
2022/05/07 08:40:22;;;;;;;1.47;1.03;;;11.00;99.90;;;;;;5063706;28;20576;-62
2022/05/07 08:42:54;;;;;;;1.93;1.73;;;11.00;99.90;;;;;;5065438;28;20476;-62
2022/05/07 08:45:25;;;;;;;1.37;0.97;;;10.90;99.90;;;;;;5064158;28;20459;-62
2022/05/07 08:47:56;;;;;;;2.20;1.13;;;10.90;99.90;;;;;;5063801;28;20468;-63
2022/05/07 08:50:27;;;;;;;1.30;0.90;;;11.00;99.90;;;;;;5063537;28;20499;-62
2022/05/07 08:52:58;;;;;;;1.10;1.00;;;10.90;99.90;;;;;;5063184;28;22487;-62
2022/05/07 08:55:29;;;;;;;1.57;0.77;;;10.90;99.90;;;;;;5063163;28;20476;-62
2022/05/07 08:58:02;;;;;;;1.67;0.80;;;10.90;99.90;;;;;;5067456;28;20460;-62
2022/05/07 09:00:33;;;;;;;1.63;1.10;;;10.80;99.90;;;;;;5063881;28;20456;-62
2022/05/07 09:03:05;;;;;;;1.17;0.80;;;10.80;99.90;;;;;;5062693;28;20508;-62
2022/05/07 09:05:37;;;;;;;1.43;1.27;;;10.80;99.90;;;;;;5061567;28;20464;-62
2022/05/07 09:08:10;;;;;;;0.97;0.90;;;10.80;99.90;;;;;;5063531;28;20464;-62
2022/05/07 09:10:42;;;;;;;0.98;0.60;;;10.80;99.90;;;;;;5066466;28;20470;-63
2022/05/07 09:13:16;;;;;;;1.87;0.90;;;10.80;99.90;;;;;;5062523;28;20209;-63
2022/05/07 09:15:55;;;;;;;0.67;0.60;;;10.80;99.90;;;;;;5063957;28;20957;-63
2022/05/07 09:18:28;;;;;;;1.40;0.83;;;10.80;99.90;;;;;;5062759;28;20467;-62
2022/05/07 09:21:19;;;;;;;0.70;0.63;;;10.80;99.90;;;;;;5062861;28;20487;-63
2022/05/07 09:24:03;;;;;;;1.60;0.80;;;10.80;99.90;;;;;;5061505;28;20606;-63
2022/05/07 09:26:35;;;;;;;2.37;0.97;;;10.80;99.90;;;;;;5063151;28;20497;-62
2022/05/07 09:29:10;;;;;;;1.20;0.87;;;10.80;99.90;;;;;;5062921;28;20475;-63
2022/05/07 09:31:43;;;;;;;0.70;0.70;;;10.80;99.90;;;;;;5062777;28;20883;-62
2022/05/07 09:37:17;;;;;;;1.30;0.90;;;10.90;99.90;;;;;;5040593;28;20468;-62
2022/05/07 09:39:49;;;;;;;1.70;0.70;;;10.90;99.90;;;;;;5039393;28;20479;-61
2022/05/07 09:42:22;;;;;;;1.00;0.60;;;10.90;99.90;;;;;;5037809;28;20492;-62
2022/05/07 09:44:55;;;;;;;0.83;0.80;;;10.90;99.90;;;;;;5038269;28;20465;-62
2022/05/07 09:47:25;;;;;;;1.70;0.73;;;10.90;99.90;;;;;;5040143;28;20488;-61
2022/05/07 09:57:30;;;;;;;0.70;0.70;;;10.90;99.90;;;;;;5033674;28;20469;-63
2022/05/07 09:58:23;;;;;;;2.13;0.90;;;10.90;99.90;;;;;;5032614;28;20826;-62
2022/05/07 10:01:27;;;;;;;2.00;0.80;;;10.90;99.90;;;;;;5038745;28;20458;-62
2022/05/07 10:04:20;;;;;;;1.20;1.10;;;10.90;99.90;;;;;;5028740;28;20493;-63
2022/05/07 10:07:10;;;;;;;0.93;0.90;;;10.80;99.90;;;;;;5039583;28;20465;-63
2022/05/07 10:09:51;;;;;;;4.30;0.80;;;10.80;99.90;;;;;;5037314;28;20830;-61
2022/05/07 10:12:23;;;;;;;1.63;0.83;;;10.80;99.90;;;;;;5060926;28;20475;-62
2022/05/07 10:14:54;;;;;;;2.57;0.77;;;10.80;99.90;;;;;;5064642;28;20522;-62
2022/05/07 10:17:26;;;;;;;0.80;0.80;;;10.70;99.90;;;;;;5063773;28;20464;-63
2022/05/07 10:20:06;;;;;;;0.97;0.60;;;10.70;99.90;;;;;;5062560;28;20452;-63
2022/05/07 10:22:37;;;;;;;0.87;0.87;;;10.70;99.90;;;;;;5061779;28;20486;-62
2022/05/07 10:25:13;;;;;;;1.70;0.80;;;10.70;99.90;;;;;;5058685;28;20947;-62
2022/05/07 10:27:44;;;;;;;2.33;0.70;;;10.70;99.90;;;;;;5062005;28;20475;-62
2022/05/07 10:30:16;;;;;;;3.50;1.13;;;10.70;99.90;;;;;;5053271;28;20468;-63
2022/05/07 10:32:58;;;;;;;3.97;0.80;;;10.70;99.90;;;;;;5060137;28;20464;-63
2022/05/07 10:35:42;;;;;;;3.13;0.90;;;10.70;99.90;;;;;;5061526;28;20488;-63
2022/05/07 10:38:14;;;;;;;1.37;0.70;;;10.70;99.90;;;;;;5061439;28;20460;-63
2022/05/07 10:40:56;;;;;;;2.43;1.10;;;10.70;99.90;;;;;;5061847;28;20464;-63
2022/05/07 10:43:32;;;;;;;3.53;0.90;;;10.70;99.90;;;;;;5060901;28;20496;-63
2022/05/07 10:46:05;;;;;;;1.33;1.10;;;10.70;99.90;;;;;;5064069;28;20472;-63
2022/05/07 10:48:48;;;;;;;1.63;1.10;;;10.70;99.90;;;;;;5061158;28;20545;-63
2022/05/07 10:51:20;;;;;;;0.90;0.87;;;10.70;99.90;;;;;;5062620;28;20471;-63
2022/05/07 10:53:52;;;;;;;1.90;1.03;;;10.70;99.90;;;;;;5060942;28;20459;-63
2022/05/07 10:56:23;;;;;;;1.93;1.50;;;10.60;99.90;;;;;;5061651;28;20455;-63
2022/05/07 10:58:57;;;;;;;1.90;0.83;;;10.60;99.90;;;;;;5061642;28;20503;-63
2022/05/07 11:01:29;;;;;;;2.60;1.00;;;10.70;99.90;;;;;;5063717;28;20456;-64
2022/05/07 11:04:05;;;;;;;2.87;1.10;;;10.70;99.90;;;;;;5059943;28;20495;-62
2022/05/07 11:06:50;;;;;;;1.30;1.00;;;10.80;99.90;;;;;;5061656;28;20468;-62
2022/05/07 11:09:22;;;;;;;3.10;0.90;;;10.80;99.90;;;;;;5063273;28;20489;-62
2022/05/07 11:11:54;;;;;;;2.40;1.07;;;10.80;99.90;;;;;;5062540;28;20539;-62
2022/05/07 11:14:27;;;;;;;0.80;0.43;;;10.70;99.90;;;;;;5061061;28;20459;-61
2022/05/07 11:16:58;;;;;;;1.97;0.67;;;10.80;99.90;;;;;;5064313;28;20483;-62
2022/05/07 11:19:32;;;;;;;1.00;0.80;;;10.80;99.90;;;;;;5061570;28;20471;-62
2022/05/07 11:22:06;;;;;;;1.70;0.60;;;10.70;99.90;;;;;;5060927;28;20469;-62
2022/05/07 11:24:36;;;;;;;1.97;0.90;;;10.70;99.90;;;;;;5060276;28;20492;-62
2022/05/07 11:27:11;;;;;;;1.03;0.67;;;10.70;99.90;;;;;;5060761;28;20454;-62
2022/05/07 11:29:42;;;;;;;3.10;0.77;;;10.70;99.90;;;;;;5060998;28;20468;-63
2022/05/07 11:32:14;;;;;;;2.30;0.87;;;10.70;99.90;;;;;;5060604;28;20508;-63
2022/05/07 11:34:46;;;;;;;0.73;0.50;;;10.70;99.90;;;;;;5060961;28;20472;-61
2022/05/07 11:37:19;;;;;;;1.40;0.60;;;10.60;99.90;;;;;;5064728;28;20460;-61
2022/05/07 11:39:51;;;;;;;1.30;0.47;;;10.60;99.90;;;;;;5060429;28;20471;-63
2022/05/07 11:42:32;;;;;;;0.70;0.40;;;10.60;99.90;;;;;;5061474;28;20543;-62
2022/05/07 11:45:29;;;;;;;0.40;0.40;;;10.60;99.90;;;;;;5061029;28;20850;-63
2022/05/07 11:48:03;;;;;;;0.50;0.50;;;10.60;99.90;;;;;;5059988;28;20551;-62
2022/05/07 11:50:40;;;;;;;1.00;0.60;;;10.60;99.90;;;;;;5061231;28;20468;-61
2022/05/07 11:53:13;;;;;;;0.80;0.43;;;10.60;99.90;;;;;;5059460;28;20464;-61
2022/05/07 11:55:44;;;;;;;0.60;0.60;;;10.50;99.90;;;;;;5064719;28;20480;-61
2022/05/07 11:58:17;;;;;;;2.20;1.33;;;10.50;99.90;;;;;;5064637;28;20474;-62
2022/05/07 12:00:49;;;;;;;0.60;0.60;;;10.50;99.90;;;;;;5064990;28;20464;-62
2022/05/07 12:03:20;;;;;;;2.93;0.60;;;10.50;99.90;;;;;;5066360;28;20456;-63
2022/05/07 12:05:54;;;;;;;0.57;0.40;;;10.50;99.90;;;;;;5065003;28;20476;-63
2022/05/07 12:08:26;;;;;;;0.57;0.57;;;10.50;99.90;;;;;;5064126;28;20464;-62
2022/05/07 12:10:58;;;;;;;0.97;0.40;;;10.50;99.90;;;;;;5064584;28;20460;-62
2022/05/07 12:13:29;;;;;;;3.50;0.60;;;10.50;99.90;;;;;;5066469;28;20460;-63
2022/05/07 12:18:59;;;;;;;2.07;0.60;;;10.40;99.90;;;;;;5042490;28;20503;-63
2022/05/07 12:29:54;;;;;;;0.83;0.63;;;10.40;99.90;;;;;;5038079;28;20533;-63
2022/05/07 12:32:26;;;;;;;3.47;0.80;;;10.50;99.90;;;;;;5040347;28;20504;-63
2022/05/07 12:34:59;;;;;;;1.40;0.80;;;10.50;99.90;;;;;;5042258;28;20515;-63
2022/05/07 12:37:32;;;;;;;2.83;1.20;;;10.50;99.90;;;;;;5041912;28;20516;-62
2022/05/07 12:40:03;;;;;;;2.23;1.20;;;10.50;99.90;;;;;;5040022;28;20448;-64
2022/05/07 12:42:35;;;;;;;2.93;1.67;;;10.40;99.90;;;;;;5041853;28;20461;-61
2022/05/07 12:45:12;;;;;;;3.40;1.83;;;10.30;99.90;;;;;;5034528;28;20492;-64
2022/05/07 12:47:43;;;;;;;3.00;1.58;;;10.20;99.90;;;;;;5046109;28;20567;-63
2022/05/07 12:50:14;;;;;;;1.67;1.50;;;10.10;99.90;;;;;;5043275;28;20207;-64
2022/05/07 12:52:47;;;;;;;5.55;1.60;;;10.20;99.90;;;;;;5048533;28;20461;-60
2022/05/07 12:55:19;;;;;;;4.17;1.53;;;10.20;99.90;;;;;;5063738;28;20216;-62
2022/05/07 12:57:50;;;;;;;2.03;1.50;;;10.10;99.90;;;;;;5064415;28;20447;-61
2022/05/07 13:00:21;;;;;;;2.80;2.03;;;10.20;99.90;;;;;;5067420;28;22208;-62
2022/05/07 13:02:53;;;;;;;3.35;1.60;;;10.10;99.90;;;;;;5063714;28;20491;-61
2022/05/07 13:05:24;;;;;;;4.40;1.93;;;10.10;99.90;;;;;;5063087;28;20225;-62
2022/05/07 13:08:17;;;;;;;5.30;1.52;;;10.00;99.90;;;;;;5066302;28;20456;-62
2022/05/07 13:10:48;;;;;;;2.00;1.40;;;10.00;99.90;;;;;;5064084;28;20205;-64
2022/05/07 13:13:23;;;;;;;2.90;1.60;;;9.90;99.90;;;;;;5065139;28;20460;-61
2022/05/07 13:15:54;;;;;;;2.20;1.60;;;9.90;99.90;;;;;;5059957;28;20479;-62
2022/05/07 13:18:25;;;;;;;2.97;1.40;;;9.80;99.90;;;;;;5063730;28;20513;-62
2022/05/07 13:20:57;;;;;;;4.40;1.57;;;9.80;99.90;;;;;;5064149;28;20460;-63
2022/05/07 13:23:29;;;;;;;4.00;1.87;;;9.80;99.90;;;;;;5059641;28;20464;-62
2022/05/07 13:26:00;;;;;;;3.40;1.90;;;9.90;99.90;;;;;;5064373;28;20863;-62
2022/05/07 13:28:31;;;;;;;4.47;2.10;;;9.90;99.90;;;;;;5063777;28;20467;-62
2022/05/07 13:31:02;;;;;;;2.10;1.63;;;9.90;99.90;;;;;;5063773;28;20464;-62
2022/05/07 13:33:33;;;;;;;3.00;1.87;;;9.90;99.90;;;;;;5063595;28;20472;-61
2022/05/07 13:36:05;;;;;;;1.80;1.70;;;9.80;99.90;;;;;;5063676;28;20467;-64
2022/05/07 13:38:38;;;;;;;4.53;1.97;;;9.90;99.90;;;;;;5062352;28;20795;-62
2022/05/07 13:41:09;;;;;;;4.13;2.30;;;9.80;99.90;;;;;;5065901;28;20577;-63
2022/05/07 13:43:40;;;;;;;3.78;1.58;;;9.80;99.90;;;;;;5063502;28;20968;-62
2022/05/07 13:46:12;;;;;;;1.70;1.23;;;9.80;99.90;;;;;;5063802;28;20677;-63
2022/05/07 13:48:44;;;;;;;3.97;1.97;;;9.80;99.90;;;;;;5062947;28;20536;-62
2022/05/07 13:51:16;;;;;;;2.73;1.70;;;9.80;99.90;;;;;;5063579;28;20460;-64
2022/05/07 13:53:49;;;;;;;3.53;2.03;;;9.80;99.90;;;;;;5061703;28;20456;-62